Ana Sayfa
METAR-TAF:

METAR-TAF

Havaalanları :

Petawawa, Ontario, Kanada

Enlem: 45-57N, Boylam: 077-19W, yükseklik: 130 m

Güncel hava durumu gözlemi

Rapor saat 21:00 UTC de 51 dakika önce yapıldı.
Rüzgar batı/kuzeybatıdan 6 kt
Sıcaklık 9°C
Nem 37%
Basınç 1010 hPa
Görüş mesafesi: 14.5 km
6400 ft yükseklikte az bulutlu
6900 ft yükseklikte az bulutlu

METAR: CYWA 242100Z AUTO 30006KT 9SM FEW064 FEW069 09/M05 A2983 RMK SLP107

Saat: 16:51 (21:51 UTC)

Tahmin

Rapor saat 17:30 UTC de 4 saat ve 21 dakika önce yapıldı.
Ayın 24'si saat 18 UTC'den ayın 25'si saat 06 UTC'ye kadar geçerli Tahmin
Rüzgar batıdan 5 kt
Görüş mesafesi: 10 km
5000 ft yükseklikte parçalı bulutlu
Ayın 24'si saat 2200 UTC'den
Rüzgar batıdan 5 kt
Görüş mesafesi: 10 km
3000 ft yükseklikte parçalı çok bulutlu

TAF: CYWA 241730Z 2418/2506 28005KT P6SM SCT050 FM242200 26005KT P6SM BKN030 RMK FCST BASED ON AUTO OBS. NXT FCST BY 250000Z

4.000'den fazla havaalanı için hava durumu gözlemleri ve tahminleri (METAR ve TAF raporları).

Kullanılabilir istasyonlar harita üzerinde sarı ve kırmızı noktalarla gösterilir.

İstasyonun adını görmek için fareyi noktanın üzerinde gezdirin.

Sonrasında hava gözlem ve tahminlerini görmek için tıklayın.

Haritayı değiştirmek için: yaklaştırmak için siyah artı işaretli yeşil düğmeye ve uzaklaştırmak için de eksi işaretli düğmeye hızla tıklayın; bitişik haritalar için yeşil okları kullanın.


METAR-TAF: